createdAt,value
2018-07-25T00:01:45.079Z,23.20
2018-07-25T00:06:48.591Z,23.19
2018-07-25T00:11:52.142Z,23.10
2018-07-25T00:16:55.613Z,22.96
2018-07-25T00:21:59.292Z,22.98
2018-07-25T00:27:02.895Z,22.90
2018-07-25T00:32:07.818Z,22.89
2018-07-25T00:37:11.298Z,22.86
2018-07-25T00:42:14.883Z,22.67
2018-07-25T00:47:18.354Z,22.70
2018-07-25T00:52:21.932Z,22.65
2018-07-25T00:57:25.560Z,22.64
2018-07-25T01:02:29.124Z,22.55
2018-07-25T01:07:32.733Z,22.35
2018-07-25T01:12:36.331Z,22.14
2018-07-25T01:17:39.825Z,22.21
2018-07-25T01:22:44.171Z,22.21
2018-07-25T01:27:47.681Z,22.16
2018-07-25T01:32:51.247Z,22.11
2018-07-25T01:37:54.756Z,22.06
2018-07-25T01:42:58.313Z,21.98
2018-07-25T01:48:02.317Z,21.78
2018-07-25T01:53:06.405Z,21.70
2018-07-25T01:58:09.921Z,21.56
2018-07-25T02:03:13.858Z,21.53
2018-07-25T02:08:17.424Z,21.40
2018-07-25T02:13:21.815Z,21.20
2018-07-25T02:18:25.323Z,21.24
2018-07-25T02:23:29.104Z,21.38
2018-07-25T02:28:32.609Z,21.38
2018-07-25T02:33:41.553Z,21.39
2018-07-25T02:38:45.031Z,21.40
2018-07-25T02:43:48.670Z,21.05
2018-07-25T02:48:52.162Z,20.62
2018-07-25T02:53:55.713Z,20.84
2018-07-25T02:58:59.230Z,20.95
2018-07-25T03:04:03.143Z,21.03
2018-07-25T03:09:08.701Z,20.95
2018-07-25T03:14:13.015Z,20.87
2018-07-25T03:19:16.725Z,20.78
2018-07-25T03:24:20.326Z,20.86
2018-07-25T03:29:23.825Z,20.80
2018-07-25T03:34:27.370Z,20.80
2018-07-25T03:39:30.858Z,20.28
2018-07-25T03:44:34.389Z,20.15
2018-07-25T03:49:37.916Z,20.24
2018-07-25T03:54:41.857Z,20.46
2018-07-25T03:59:45.336Z,20.49
2018-07-25T04:04:48.897Z,20.33
2018-07-25T04:09:52.517Z,20.50
2018-07-25T04:14:56.570Z,20.68
2018-07-25T04:20:00.085Z,20.32
2018-07-25T04:25:03.727Z,20.56
2018-07-25T04:30:08.857Z,20.76
2018-07-25T04:35:14.233Z,20.60
2018-07-25T04:40:17.863Z,20.71
2018-07-25T04:45:21.497Z,20.60
2018-07-25T04:50:25.090Z,20.65
2018-07-25T04:55:29.249Z,20.76
2018-07-25T05:00:33.729Z,20.98
2018-07-25T05:05:37.307Z,20.91
2018-07-25T05:10:41.359Z,20.91
2018-07-25T05:15:44.911Z,21.23
2018-07-25T05:20:49.416Z,21.41
2018-07-25T05:25:52.961Z,21.33
2018-07-25T05:30:56.536Z,21.28
2018-07-25T05:36:00.121Z,21.47
2018-07-25T05:41:04.550Z,21.85
2018-07-25T05:46:08.361Z,22.15
2018-07-25T05:51:12.055Z,22.54
2018-07-25T05:56:15.673Z,22.86
2018-07-25T06:01:19.173Z,23.22
2018-07-25T06:06:23.010Z,23.65
2018-07-25T06:11:27.102Z,23.90
2018-07-25T06:16:30.655Z,24.33
2018-07-25T06:21:34.178Z,24.37
2018-07-25T06:26:38.191Z,24.49
2018-07-25T06:31:41.762Z,24.65
2018-07-25T06:36:45.901Z,24.97
2018-07-25T06:41:50.030Z,25.13
2018-07-25T06:46:53.582Z,25.18
2018-07-25T06:51:57.939Z,25.36
2018-07-25T06:57:01.617Z,25.51
2018-07-25T07:02:05.127Z,25.95
2018-07-25T07:07:09.950Z,26.19
2018-07-25T07:12:14.798Z,26.46
2018-07-25T07:17:18.475Z,26.59
2018-07-25T07:22:22.012Z,27.03
2018-07-25T07:27:25.589Z,27.33
2018-07-25T07:32:30.085Z,27.38
2018-07-25T07:37:33.971Z,27.54
2018-07-25T07:42:37.448Z,27.52
2018-07-25T07:47:41.012Z,28.06
2018-07-25T07:52:44.921Z,28.32
2018-07-25T07:57:48.545Z,28.44
2018-07-25T08:02:52.068Z,28.41
2018-07-25T08:07:55.616Z,28.83
2018-07-25T08:12:59.941Z,29.00
2018-07-25T08:18:03.531Z,28.96
2018-07-25T08:23:06.969Z,29.31
2018-07-25T08:28:10.728Z,29.50
2018-07-25T08:33:14.233Z,29.75
2018-07-25T08:38:23.461Z,29.97
2018-07-25T08:43:27.157Z,30.05
2018-07-25T08:48:30.802Z,30.22
2018-07-25T08:53:35.100Z,30.23
2018-07-25T08:58:38.653Z,30.14
2018-07-25T09:03:42.162Z,30.43
2018-07-25T09:08:45.914Z,30.66
2018-07-25T09:13:49.441Z,30.74
2018-07-25T09:18:52.969Z,31.05
2018-07-25T09:23:56.714Z,31.32
2018-07-25T09:29:00.284Z,31.65
2018-07-25T09:34:04.016Z,31.66
2018-07-25T09:39:09.913Z,31.80
2018-07-25T09:44:13.508Z,31.58
2018-07-25T09:49:17.285Z,31.85
2018-07-25T09:54:21.203Z,32.11
2018-07-25T09:59:24.754Z,31.81
2018-07-25T10:04:28.344Z,32.01
2018-07-25T10:09:31.862Z,32.29
2018-07-25T10:14:35.394Z,32.68
2018-07-25T10:19:38.985Z,32.98
2018-07-25T10:24:42.453Z,33.16
2018-07-25T10:29:46.138Z,33.33
2018-07-25T10:34:49.637Z,33.07
2018-07-25T10:39:53.181Z,33.43
2018-07-25T10:44:57.411Z,33.28
2018-07-25T10:50:01.054Z,33.43
2018-07-25T10:55:04.639Z,33.51
2018-07-25T11:00:09.741Z,33.42
2018-07-25T11:05:13.240Z,33.67
2018-07-25T11:10:16.850Z,33.80
2018-07-25T11:15:20.892Z,33.98
2018-07-25T11:20:24.455Z,33.87
2018-07-25T11:25:27.896Z,33.51
2018-07-25T11:30:43.553Z,33.79
2018-07-25T11:35:47.867Z,34.08
2018-07-25T11:40:52.023Z,34.24
2018-07-25T11:45:56.222Z,34.24
2018-07-25T11:51:00.266Z,33.97
2018-07-25T11:56:03.783Z,34.40
2018-07-25T12:01:07.350Z,34.87
2018-07-25T12:06:10.910Z,34.79
2018-07-25T12:11:14.635Z,34.93
2018-07-25T12:16:18.438Z,34.91
2018-07-25T12:21:22.093Z,34.43
2018-07-25T12:26:25.562Z,34.66
2018-07-25T12:31:32.973Z,35.30
2018-07-25T12:36:36.475Z,35.63
2018-07-25T12:41:41.300Z,35.89
2018-07-25T12:46:45.597Z,35.79
2018-07-25T12:51:49.157Z,35.14
2018-07-25T12:56:52.663Z,34.50
2018-07-25T13:01:56.557Z,34.40
2018-07-25T13:07:00.062Z,34.09
2018-07-25T13:12:04.235Z,33.96
2018-07-25T13:17:08.404Z,33.78
2018-07-25T13:22:13.449Z,33.67
2018-07-25T13:27:16.976Z,33.56
2018-07-25T13:32:21.391Z,33.45
2018-07-25T13:37:24.920Z,33.34
2018-07-25T13:42:28.544Z,33.27
2018-07-25T13:47:32.173Z,33.21
2018-07-25T13:52:36.234Z,33.26
2018-07-25T13:57:39.829Z,33.24
2018-07-25T14:02:43.459Z,33.20
2018-07-25T14:07:46.959Z,33.21
2018-07-25T14:12:50.506Z,33.23
2018-07-25T14:17:54.218Z,33.25
2018-07-25T14:22:58.469Z,33.31
2018-07-25T14:28:02.047Z,33.34
2018-07-25T14:33:06.878Z,33.34
2018-07-25T14:38:11.247Z,33.27
2018-07-25T14:43:15.306Z,33.28
2018-07-25T14:48:18.847Z,33.29
2018-07-25T14:53:22.438Z,33.35
2018-07-25T14:58:25.944Z,33.40
2018-07-25T15:03:29.453Z,33.28
2018-07-25T15:08:32.969Z,33.30
2018-07-25T15:13:37.281Z,33.26
2018-07-25T15:18:41.288Z,33.32
2018-07-25T15:23:57.346Z,33.34
2018-07-25T15:29:01.652Z,33.38
2018-07-25T15:34:06.151Z,33.43
2018-07-25T15:39:13.734Z,32.86
2018-07-25T15:44:18.331Z,32.95
2018-07-25T15:49:22.134Z,33.40
2018-07-25T15:54:25.781Z,34.00
2018-07-25T15:59:29.336Z,34.50
2018-07-25T16:04:33.318Z,34.56
2018-07-25T16:09:36.846Z,34.21
2018-07-25T16:14:40.477Z,34.00
2018-07-25T16:19:44.131Z,33.46
2018-07-25T16:24:47.673Z,33.10
2018-07-25T16:29:51.169Z,32.99
2018-07-25T16:34:54.849Z,32.91
2018-07-25T16:40:01.118Z,32.84
2018-07-25T16:45:05.010Z,32.88
2018-07-25T16:50:08.628Z,32.85
2018-07-25T16:55:12.361Z,33.32
2018-07-25T17:00:16.321Z,33.57
2018-07-25T17:05:20.775Z,33.50
2018-07-25T17:10:24.333Z,33.47
2018-07-25T17:15:28.219Z,33.78
2018-07-25T17:20:31.746Z,33.81
2018-07-25T17:25:35.306Z,33.62
2018-07-25T17:30:39.321Z,33.22
2018-07-25T17:35:42.889Z,32.40
2018-07-25T17:40:46.458Z,31.76
2018-07-25T17:45:51.068Z,31.44
2018-07-25T17:50:54.600Z,31.03
2018-07-25T17:55:58.200Z,30.70
2018-07-25T18:01:01.746Z,30.36
2018-07-25T18:06:07.502Z,30.26
2018-07-25T18:11:11.470Z,29.92
2018-07-25T18:16:15.054Z,29.64
2018-07-25T18:21:18.576Z,29.28
2018-07-25T18:26:23.266Z,29.25
2018-07-25T18:31:26.791Z,28.86
2018-07-25T18:36:31.386Z,28.60
2018-07-25T18:41:34.923Z,28.55
2018-07-25T18:46:43.972Z,28.51
2018-07-25T18:51:47.472Z,28.37
2018-07-25T18:56:51.008Z,28.18
2018-07-25T19:01:54.668Z,28.06
2018-07-25T19:06:58.291Z,27.74
2018-07-25T19:12:01.774Z,27.61
2018-07-25T19:17:05.342Z,27.55
2018-07-25T19:22:08.914Z,27.48
2018-07-25T19:27:12.564Z,27.43
2018-07-25T19:32:16.612Z,27.27
2018-07-25T19:37:21.982Z,27.16
2018-07-25T19:42:25.479Z,27.11
2018-07-25T19:47:29.005Z,27.08
2018-07-25T19:52:32.595Z,26.96
2018-07-25T19:57:36.142Z,26.93
2018-07-25T20:02:40.700Z,26.87
2018-07-25T20:07:44.392Z,26.90
2018-07-25T20:12:48.079Z,26.90
2018-07-25T20:17:51.661Z,26.71
2018-07-25T20:23:01.792Z,26.64
2018-07-25T20:28:05.560Z,26.61
2018-07-25T20:33:09.091Z,26.48
2018-07-25T20:38:13.607Z,26.40
2018-07-25T20:43:17.204Z,26.37
2018-07-25T20:48:20.944Z,26.34
2018-07-25T20:53:24.448Z,26.29
2018-07-25T20:58:28.051Z,26.23
2018-07-25T21:03:32.520Z,26.17
2018-07-25T21:08:37.032Z,26.11
2018-07-25T21:13:40.505Z,26.07
2018-07-25T21:18:44.047Z,26.08
2018-07-25T21:23:47.587Z,25.92
2018-07-25T21:28:51.640Z,25.90
2018-07-25T21:33:55.710Z,25.99
2018-07-25T21:38:59.462Z,25.97
2018-07-25T21:44:02.975Z,25.91
2018-07-25T21:49:07.020Z,25.85
2018-07-25T21:54:10.560Z,25.83
2018-07-25T21:59:14.119Z,25.73
2018-07-25T22:04:17.774Z,25.63
2018-07-25T22:09:21.372Z,25.23
2018-07-25T22:14:25.917Z,24.87
2018-07-25T22:19:30.140Z,24.91
2018-07-25T22:24:33.612Z,24.78
2018-07-25T22:29:37.174Z,24.74
2018-07-25T22:34:40.655Z,24.76
2018-07-25T22:39:45.080Z,24.67
2018-07-25T22:44:48.907Z,24.93
2018-07-25T22:49:52.475Z,25.03
2018-07-25T22:54:55.932Z,25.07
2018-07-25T22:59:59.455Z,25.09
2018-07-25T23:05:03.062Z,25.13
2018-07-25T23:10:07.604Z,25.12
2018-07-25T23:15:11.180Z,25.18
2018-07-25T23:20:16.137Z,25.04
2018-07-25T23:25:19.613Z,24.96
2018-07-25T23:30:32.549Z,24.80
2018-07-25T23:35:36.083Z,24.76
2018-07-25T23:40:39.565Z,24.81
2018-07-25T23:45:43.147Z,24.77
2018-07-25T23:50:46.773Z,24.70
2018-07-25T23:55:50.310Z,24.53
